createdAt,value
2022-11-02T00:00:30.618Z,8.62
2022-11-02T00:02:57.563Z,8.73
2022-11-02T00:05:24.703Z,8.73
2022-11-02T00:07:52.422Z,8.68
2022-11-02T00:10:19.591Z,8.57
2022-11-02T00:12:46.194Z,8.61
2022-11-02T00:15:13.150Z,8.60
2022-11-02T00:17:42.122Z,8.64
2022-11-02T00:20:10.294Z,8.58
2022-11-02T00:22:37.470Z,8.63
2022-11-02T00:25:06.630Z,8.56
2022-11-02T00:27:35.083Z,8.57
2022-11-02T00:30:01.573Z,8.59
2022-11-02T00:32:27.893Z,8.58
2022-11-02T00:34:54.170Z,8.57
2022-11-02T00:37:20.552Z,8.58
2022-11-02T00:39:46.919Z,8.57
2022-11-02T00:42:13.185Z,8.55
2022-11-02T00:44:39.482Z,8.51
2022-11-02T00:47:05.942Z,8.48
2022-11-02T00:49:32.198Z,8.48
2022-11-02T00:51:58.861Z,8.50
2022-11-02T00:54:27.707Z,8.50
2022-11-02T00:56:55.213Z,8.51
2022-11-02T00:59:21.626Z,8.50
2022-11-02T01:01:49.538Z,8.44
2022-11-02T01:04:17.404Z,8.47
2022-11-02T01:06:59.221Z,8.46
2022-11-02T01:09:25.665Z,8.47
2022-11-02T01:11:52.719Z,8.46
2022-11-02T01:14:19.002Z,8.44
2022-11-02T01:19:13.198Z,8.47
2022-11-02T01:21:39.851Z,8.43
2022-11-02T01:24:06.626Z,8.45
2022-11-02T01:26:33.025Z,8.40
2022-11-02T01:28:59.442Z,8.43
2022-11-02T01:31:25.754Z,8.39
2022-11-02T01:33:52.070Z,8.31
2022-11-02T01:38:52.570Z,8.28
2022-11-02T01:41:18.907Z,8.28
2022-11-02T01:43:46.727Z,8.20
2022-11-02T01:46:13.007Z,8.20
2022-11-02T01:48:55.360Z,8.18
2022-11-02T01:51:26.120Z,8.14
2022-11-02T01:53:55.259Z,8.05
2022-11-02T01:56:24.917Z,8.03
2022-11-02T01:58:58.260Z,8.01
2022-11-02T02:01:25.363Z,8.03
2022-11-02T02:03:53.514Z,8.06
2022-11-02T02:06:20.009Z,8.07
2022-11-02T02:08:49.881Z,8.11
2022-11-02T02:11:37.777Z,8.14
2022-11-02T02:14:08.166Z,8.14
2022-11-02T02:16:37.499Z,8.19
2022-11-02T02:19:16.126Z,8.20
2022-11-02T02:21:47.682Z,8.27
2022-11-02T02:24:33.426Z,8.28
2022-11-02T02:27:08.149Z,8.23
2022-11-02T02:30:03.549Z,8.22
2022-11-02T02:32:50.172Z,8.26
2022-11-02T02:35:21.526Z,8.17
2022-11-02T02:37:57.083Z,8.16
2022-11-02T02:40:27.878Z,8.10
2022-11-02T02:43:18.134Z,8.12
2022-11-02T02:45:51.958Z,8.13
2022-11-02T02:48:20.974Z,8.09
2022-11-02T02:50:54.273Z,8.15
2022-11-02T02:53:25.394Z,8.29
2022-11-02T02:55:52.571Z,8.23
2022-11-02T02:58:24.042Z,8.22
2022-11-02T03:00:52.914Z,8.17
2022-11-02T03:03:25.174Z,8.16
2022-11-02T03:06:05.252Z,8.16
2022-11-02T03:08:35.403Z,8.11
2022-11-02T03:11:14.750Z,8.10
2022-11-02T03:13:47.618Z,8.18
2022-11-02T03:16:31.003Z,8.22
2022-11-02T03:19:19.553Z,8.28
2022-11-02T03:21:51.456Z,8.29
2022-11-02T03:24:37.478Z,8.31
2022-11-02T03:27:17.596Z,8.36
2022-11-02T03:29:53.801Z,8.33
2022-11-02T03:32:41.410Z,8.37
2022-11-02T03:35:19.513Z,8.36
2022-11-02T03:37:53.518Z,8.42
2022-11-02T03:40:28.673Z,8.41
2022-11-02T03:42:57.378Z,8.43
2022-11-02T03:45:27.983Z,8.45
2022-11-02T03:48:00.217Z,8.50
2022-11-02T03:50:27.767Z,8.52
2022-11-02T03:53:03.622Z,8.59
2022-11-02T03:55:35.509Z,8.57
2022-11-02T03:58:02.088Z,8.56
2022-11-02T04:00:34.146Z,8.60
2022-11-02T04:03:10.853Z,8.69
2022-11-02T04:05:37.503Z,8.70
2022-11-02T04:08:23.158Z,8.68
2022-11-02T04:11:09.216Z,8.66
2022-11-02T04:13:55.197Z,8.73
2022-11-02T04:16:26.618Z,8.78
2022-11-02T04:19:13.264Z,8.75
2022-11-02T04:21:39.628Z,8.77
2022-11-02T04:24:25.148Z,8.72
2022-11-02T04:26:51.405Z,8.87
2022-11-02T04:29:17.753Z,8.85
2022-11-02T04:31:44.126Z,8.85
2022-11-02T04:34:10.387Z,8.87
2022-11-02T04:36:36.781Z,8.77
2022-11-02T04:39:03.301Z,8.75
2022-11-02T04:41:41.529Z,8.74
2022-11-02T04:44:09.592Z,8.68
2022-11-02T04:46:37.968Z,8.67
2022-11-02T04:49:05.134Z,8.61
2022-11-02T04:51:31.657Z,8.54
2022-11-02T04:53:58.438Z,8.57
2022-11-02T04:56:26.210Z,8.59
2022-11-02T04:58:55.254Z,8.53
2022-11-02T05:01:23.484Z,8.56
2022-11-02T05:03:50.691Z,8.54
2022-11-02T05:06:18.908Z,8.53
2022-11-02T05:08:45.512Z,8.56
2022-11-02T05:11:12.522Z,8.55
2022-11-02T05:13:40.164Z,8.51
2022-11-02T05:16:12.897Z,8.55
2022-11-02T05:18:39.527Z,8.51
2022-11-02T05:21:05.900Z,8.47
2022-11-02T05:23:32.433Z,8.47
2022-11-02T05:26:04.687Z,8.44
2022-11-02T05:28:31.883Z,8.54
2022-11-02T05:31:00.457Z,8.50
2022-11-02T05:33:30.724Z,8.58
2022-11-02T05:35:58.850Z,8.58
2022-11-02T05:38:26.194Z,8.58
2022-11-02T05:40:57.471Z,8.55
2022-11-02T05:43:24.505Z,8.56
2022-11-02T05:46:01.373Z,8.47
2022-11-02T05:48:30.850Z,8.57
2022-11-02T05:51:01.817Z,8.46
2022-11-02T05:53:33.747Z,8.52
2022-11-02T05:56:01.730Z,8.51
2022-11-02T05:58:28.476Z,8.50
2022-11-02T06:00:55.023Z,8.52
2022-11-02T06:03:21.466Z,8.46
2022-11-02T06:05:47.805Z,8.40
2022-11-02T06:08:14.226Z,8.40
2022-11-02T06:10:43.108Z,8.40
2022-11-02T06:13:09.985Z,8.40
2022-11-02T06:15:36.296Z,8.40
2022-11-02T06:18:02.663Z,8.40
2022-11-02T06:20:28.976Z,8.42
2022-11-02T06:22:55.277Z,8.34
2022-11-02T06:25:21.552Z,8.38
2022-11-02T06:27:56.439Z,8.38
2022-11-02T06:30:24.527Z,8.41
2022-11-02T06:32:53.074Z,8.35
2022-11-02T06:35:21.061Z,8.35
2022-11-02T06:37:47.730Z,8.30
2022-11-02T06:40:14.646Z,8.32
2022-11-02T06:42:45.170Z,8.29
2022-11-02T06:45:11.710Z,8.20
2022-11-02T06:47:38.418Z,8.19
2022-11-02T06:50:06.477Z,8.23
2022-11-02T06:52:32.977Z,8.32
2022-11-02T06:54:59.233Z,8.32
2022-11-02T06:57:25.553Z,8.39
2022-11-02T06:59:54.095Z,8.42
2022-11-02T07:02:21.845Z,8.56
2022-11-02T07:04:48.921Z,8.69
2022-11-02T07:07:15.186Z,8.75
2022-11-02T07:09:41.469Z,8.82
2022-11-02T07:12:07.750Z,8.87
2022-11-02T07:14:34.078Z,8.99
2022-11-02T07:17:00.333Z,9.02
2022-11-02T07:19:26.621Z,9.05
2022-11-02T07:21:52.885Z,9.11
2022-11-02T07:24:19.151Z,9.20
2022-11-02T07:26:50.514Z,9.26
2022-11-02T07:29:17.369Z,9.39
2022-11-02T07:31:44.114Z,9.43
2022-11-02T07:34:16.541Z,9.69
2022-11-02T07:36:43.379Z,9.90
2022-11-02T07:39:09.665Z,10.00
2022-11-02T07:41:36.077Z,10.11
2022-11-02T07:44:02.408Z,10.32
2022-11-02T07:46:28.689Z,10.40
2022-11-02T07:48:55.150Z,10.56
2022-11-02T07:51:21.552Z,10.68
2022-11-02T07:53:47.855Z,10.84
2022-11-02T07:56:14.265Z,10.99
2022-11-02T07:58:40.559Z,11.05
2022-11-02T08:01:06.833Z,11.19
2022-11-02T08:03:37.266Z,11.36
2022-11-02T08:06:03.872Z,11.39
2022-11-02T08:08:30.193Z,11.52
2022-11-02T08:11:05.102Z,11.63
2022-11-02T08:13:32.863Z,11.63
2022-11-02T08:15:59.507Z,11.66
2022-11-02T08:18:27.983Z,11.88
2022-11-02T08:20:58.812Z,11.84
2022-11-02T08:23:26.275Z,11.73
2022-11-02T08:25:53.558Z,11.99
2022-11-02T08:28:26.384Z,12.01
2022-11-02T08:30:53.408Z,12.14
2022-11-02T08:33:21.091Z,12.19
2022-11-02T08:35:48.331Z,12.22
2022-11-02T08:38:15.005Z,12.17
2022-11-02T08:40:41.436Z,12.12
2022-11-02T08:43:10.557Z,12.23
2022-11-02T08:46:12.844Z,12.29
2022-11-02T08:48:27.012Z,12.27
2022-11-02T08:50:53.401Z,12.43
2022-11-02T08:53:19.673Z,12.50
2022-11-02T08:55:45.982Z,12.50
2022-11-02T08:58:12.337Z,12.43
2022-11-02T09:00:38.993Z,12.50
2022-11-02T09:03:13.325Z,12.48
2022-11-02T09:05:42.568Z,12.58
2022-11-02T09:08:14.643Z,12.57
2022-11-02T09:10:41.190Z,12.60
2022-11-02T09:13:10.215Z,12.76
2022-11-02T09:15:37.645Z,12.77
2022-11-02T09:18:05.815Z,12.84
2022-11-02T09:20:32.809Z,12.91
2022-11-02T09:22:59.088Z,12.93
2022-11-02T09:25:25.887Z,12.92
2022-11-02T09:27:56.712Z,12.98
2022-11-02T09:30:24.534Z,13.01
2022-11-02T09:32:58.511Z,13.06
2022-11-02T09:35:26.641Z,13.17
2022-11-02T09:37:53.086Z,13.33
2022-11-02T09:40:25.688Z,13.55
2022-11-02T09:43:03.132Z,13.92
2022-11-02T09:45:34.953Z,14.27
2022-11-02T09:48:19.892Z,14.34
2022-11-02T09:50:57.744Z,14.63
2022-11-02T09:53:57.762Z,14.94
2022-11-02T09:56:24.330Z,14.86
2022-11-02T09:59:00.808Z,15.05
2022-11-02T10:01:48.671Z,15.12
2022-11-02T10:04:14.997Z,15.38
2022-11-02T10:06:49.958Z,15.33
2022-11-02T10:09:44.352Z,15.66
2022-11-02T10:12:21.406Z,15.96
2022-11-02T10:15:06.886Z,16.13
2022-11-02T10:17:37.633Z,16.23
2022-11-02T10:20:11.516Z,16.42
2022-11-02T10:22:42.330Z,16.42
2022-11-02T10:25:15.282Z,16.47
2022-11-02T10:27:45.918Z,16.11
2022-11-02T10:30:18.424Z,15.52
2022-11-02T10:32:49.750Z,15.75
2022-11-02T10:35:51.379Z,15.91
2022-11-02T10:38:32.189Z,16.25
2022-11-02T10:41:12.278Z,16.56
2022-11-02T10:43:48.236Z,16.88
2022-11-02T10:46:55.397Z,17.11
2022-11-02T10:49:51.250Z,17.17
2022-11-02T10:52:18.326Z,17.43
2022-11-02T10:54:44.658Z,17.40
2022-11-02T10:57:18.536Z,17.39
2022-11-02T10:59:44.860Z,17.45
2022-11-02T11:02:14.935Z,17.85
2022-11-02T11:04:42.481Z,17.75
2022-11-02T11:07:26.001Z,17.30
2022-11-02T11:09:57.120Z,17.44
2022-11-02T11:12:30.573Z,16.53
2022-11-02T11:20:39.424Z,17.24
2022-11-02T11:23:25.724Z,16.63
2022-11-02T11:26:03.867Z,16.03
2022-11-02T11:28:37.582Z,16.44
2022-11-02T11:31:07.890Z,16.69
2022-11-02T11:33:43.126Z,16.75
2022-11-02T11:36:11.570Z,16.39
2022-11-02T11:38:48.055Z,16.60
2022-11-02T11:41:14.646Z,16.48
2022-11-02T11:43:41.751Z,16.12
2022-11-02T11:46:08.669Z,16.44
2022-11-02T11:48:40.694Z,16.12
2022-11-02T11:51:26.531Z,16.65
2022-11-02T11:54:38.255Z,16.88
2022-11-02T11:57:24.381Z,16.74
2022-11-02T11:59:58.395Z,17.33
2022-11-02T12:02:28.058Z,17.75
2022-11-02T12:05:15.490Z,17.14
2022-11-02T12:08:00.704Z,17.56
2022-11-02T12:10:45.385Z,17.98
2022-11-02T12:13:23.681Z,17.88
2022-11-02T12:16:12.511Z,17.59
2022-11-02T12:18:47.807Z,17.33
2022-11-02T12:21:14.068Z,17.32
2022-11-02T12:24:01.756Z,16.88
2022-11-02T12:26:42.023Z,16.65
2022-11-02T12:29:26.256Z,16.51
2022-11-02T12:32:21.356Z,16.71
2022-11-02T12:35:02.775Z,16.70
2022-11-02T12:37:55.965Z,16.51
2022-11-02T12:40:39.155Z,16.17
2022-11-02T12:43:19.362Z,16.23
2022-11-02T12:46:17.980Z,16.22
2022-11-02T12:49:08.542Z,16.12
2022-11-02T12:51:44.946Z,16.14
2022-11-02T12:54:20.013Z,16.07
2022-11-02T12:56:51.661Z,16.00
2022-11-02T12:59:33.323Z,15.83
2022-11-02T13:02:33.085Z,15.98
2022-11-02T13:05:11.575Z,15.81
2022-11-02T13:07:53.627Z,15.67
2022-11-02T13:10:25.366Z,15.71
2022-11-02T13:12:57.996Z,15.72
2022-11-02T13:15:26.826Z,15.57
2022-11-02T13:18:10.972Z,15.52
2022-11-02T13:20:45.694Z,15.52
2022-11-02T13:23:18.287Z,15.52
2022-11-02T13:25:51.756Z,15.47
2022-11-02T13:28:29.962Z,15.38
2022-11-02T13:30:56.781Z,15.32
2022-11-02T13:33:29.499Z,15.30
2022-11-02T13:35:55.784Z,15.35
2022-11-02T13:38:28.678Z,15.32
2022-11-02T13:41:48.206Z,15.48
2022-11-02T13:44:20.267Z,15.45
2022-11-02T13:46:59.076Z,15.29
2022-11-02T13:49:37.439Z,15.29
2022-11-02T13:52:13.822Z,15.29
2022-11-02T13:54:50.985Z,15.24
2022-11-02T13:57:32.369Z,15.23
2022-11-02T14:00:00.787Z,15.16
2022-11-02T14:02:31.545Z,15.14
2022-11-02T14:04:57.994Z,15.09
2022-11-02T14:07:30.305Z,15.09
2022-11-02T14:10:03.627Z,15.03
2022-11-02T14:12:41.062Z,14.93
2022-11-02T14:15:13.263Z,14.93
2022-11-02T14:18:02.227Z,14.89
2022-11-02T14:20:46.819Z,14.80
2022-11-02T14:23:14.241Z,14.83
2022-11-02T14:25:50.635Z,14.85
2022-11-02T14:28:19.934Z,14.78
2022-11-02T14:30:49.082Z,14.68
2022-11-02T14:33:29.173Z,14.72
2022-11-02T14:36:05.646Z,14.64
2022-11-02T14:38:54.184Z,14.65
2022-11-02T14:41:48.624Z,14.56
2022-11-02T14:44:50.514Z,14.57
2022-11-02T14:47:18.307Z,14.51
2022-11-02T14:49:57.285Z,14.50
2022-11-02T14:52:29.855Z,14.49
2022-11-02T14:55:07.878Z,14.35
2022-11-02T14:57:49.756Z,14.35
2022-11-02T15:00:22.005Z,14.33
2022-11-02T15:02:49.843Z,14.26
2022-11-02T15:05:35.659Z,14.15
2022-11-02T15:08:02.198Z,14.11
2022-11-02T15:10:31.218Z,14.01
2022-11-02T15:13:19.050Z,13.97
2022-11-02T15:16:05.764Z,13.95
2022-11-02T15:18:34.716Z,13.88
2022-11-02T15:21:10.108Z,13.85
2022-11-02T15:23:54.908Z,13.81
2022-11-02T15:26:31.185Z,13.73
2022-11-02T15:29:02.341Z,13.73
2022-11-02T15:31:29.377Z,13.64
2022-11-02T15:33:58.829Z,13.59
2022-11-02T15:36:35.991Z,13.53
2022-11-02T15:39:07.670Z,13.44
2022-11-02T15:41:40.218Z,13.40
2022-11-02T15:44:34.971Z,13.32
2022-11-02T15:47:28.825Z,13.31
2022-11-02T15:50:08.162Z,13.14
2022-11-02T15:53:16.588Z,13.08
2022-11-02T15:55:53.769Z,12.92
2022-11-02T15:58:59.072Z,12.94
2022-11-02T16:01:29.233Z,12.81
2022-11-02T16:04:07.404Z,12.65
2022-11-02T16:06:43.048Z,12.61
2022-11-02T16:09:34.465Z,12.53
2022-11-02T16:12:22.101Z,12.42
2022-11-02T16:14:57.538Z,12.30
2022-11-02T16:17:28.290Z,12.33
2022-11-02T16:20:21.031Z,12.32
2022-11-02T16:23:01.242Z,12.21
2022-11-02T16:25:40.298Z,12.11
2022-11-02T16:28:26.910Z,12.02
2022-11-02T16:31:19.359Z,11.93
2022-11-02T16:33:52.204Z,11.87
2022-11-02T16:36:22.880Z,11.77
2022-11-02T16:39:05.844Z,11.74
2022-11-02T16:41:34.118Z,11.68
2022-11-02T16:44:09.701Z,11.65
2022-11-02T16:46:42.291Z,11.67
2022-11-02T16:49:12.981Z,11.64
2022-11-02T16:51:39.416Z,11.63
2022-11-02T16:54:34.698Z,11.69
2022-11-02T16:57:21.289Z,11.63
2022-11-02T16:59:59.727Z,11.46
2022-11-02T17:02:34.633Z,11.42
2022-11-02T17:05:05.861Z,11.34
2022-11-02T17:07:40.501Z,11.25
2022-11-02T17:10:08.415Z,11.21
2022-11-02T17:12:43.445Z,11.17
2022-11-02T17:15:23.246Z,11.12
2022-11-02T17:17:50.061Z,11.19
2022-11-02T17:20:16.363Z,11.14
2022-11-02T17:22:53.225Z,11.08
2022-11-02T17:25:30.502Z,11.02
2022-11-02T17:28:02.089Z,10.90
2022-11-02T17:30:34.436Z,10.86
2022-11-02T17:33:19.410Z,10.80
2022-11-02T17:35:47.703Z,10.80
2022-11-02T17:38:14.092Z,10.74
2022-11-02T17:40:40.980Z,10.65
2022-11-02T17:43:07.623Z,10.71
2022-11-02T17:45:37.374Z,10.70
2022-11-02T17:48:10.817Z,10.68
2022-11-02T17:50:39.433Z,10.54
2022-11-02T17:53:06.256Z,10.55
2022-11-02T17:55:34.468Z,10.47
2022-11-02T17:58:00.934Z,10.42
2022-11-02T18:00:28.676Z,10.32
2022-11-02T18:02:57.411Z,10.18
2022-11-02T18:05:29.339Z,10.23
2022-11-02T18:07:57.750Z,10.16
2022-11-02T18:10:27.379Z,9.99
2022-11-02T18:12:53.702Z,9.85
2022-11-02T18:15:26.163Z,9.78
2022-11-02T18:17:53.032Z,9.75
2022-11-02T18:20:19.663Z,9.55
2022-11-02T18:22:46.451Z,9.48
2022-11-02T18:25:15.107Z,9.42
2022-11-02T18:27:41.842Z,9.35
2022-11-02T18:30:11.541Z,9.21
2022-11-02T18:32:38.907Z,9.20
2022-11-02T18:35:07.094Z,9.14
2022-11-02T18:37:33.712Z,9.05
2022-11-02T18:40:00.219Z,9.04
2022-11-02T18:42:26.595Z,8.94
2022-11-02T18:44:52.959Z,8.94
2022-11-02T18:47:19.249Z,8.85
2022-11-02T18:49:45.625Z,8.83
2022-11-02T18:52:12.070Z,8.72
2022-11-02T18:54:38.809Z,8.71
2022-11-02T18:57:05.583Z,8.69
2022-11-02T18:59:32.062Z,8.74
2022-11-02T19:01:58.602Z,8.82
2022-11-02T19:04:25.003Z,8.74
2022-11-02T19:07:12.484Z,8.74
2022-11-02T19:09:41.725Z,8.73
2022-11-02T19:12:11.479Z,8.68
2022-11-02T19:14:40.784Z,8.51
2022-11-02T19:17:08.458Z,8.52
2022-11-02T19:19:35.259Z,8.46
2022-11-02T19:22:02.154Z,8.32
2022-11-02T19:24:28.480Z,8.35
2022-11-02T19:26:54.929Z,8.38
2022-11-02T19:29:21.503Z,8.31
2022-11-02T19:31:47.786Z,8.22
2022-11-02T19:34:14.159Z,8.08
2022-11-02T19:36:40.567Z,8.06
2022-11-02T19:39:10.629Z,8.08
2022-11-02T19:41:38.450Z,8.01
2022-11-02T19:44:05.981Z,8.08
2022-11-02T19:46:32.679Z,8.02
2022-11-02T19:48:59.156Z,8.06
2022-11-02T19:51:30.436Z,8.13
2022-11-02T19:54:01.907Z,8.24
2022-11-02T19:56:30.548Z,8.26
2022-11-02T19:58:57.294Z,8.16
2022-11-02T20:01:26.485Z,8.12
2022-11-02T20:03:54.008Z,8.13
2022-11-02T20:06:31.210Z,7.95
2022-11-02T20:08:58.311Z,7.90
2022-11-02T20:11:28.975Z,7.75
2022-11-02T20:14:03.141Z,7.55
2022-11-02T20:16:29.575Z,7.51
2022-11-02T20:18:56.517Z,7.42
2022-11-02T20:21:34.539Z,7.26
2022-11-02T20:24:05.248Z,7.19
2022-11-02T20:26:34.026Z,7.24
2022-11-02T20:29:01.948Z,7.13
2022-11-02T20:31:31.014Z,7.08
2022-11-02T20:33:59.775Z,7.08
2022-11-02T20:36:27.189Z,7.13
2022-11-02T20:38:54.302Z,7.15
2022-11-02T20:41:23.627Z,7.13
2022-11-02T20:43:51.878Z,7.11
2022-11-02T20:46:37.081Z,7.12
2022-11-02T20:49:14.447Z,7.06
2022-11-02T20:51:51.262Z,7.11
2022-11-02T20:54:19.260Z,7.10
2022-11-02T20:56:45.983Z,7.07
2022-11-02T20:59:12.300Z,7.04
2022-11-02T21:01:38.902Z,7.04
2022-11-02T21:04:05.378Z,7.06
2022-11-02T21:06:31.682Z,7.06
2022-11-02T21:09:00.213Z,7.07
2022-11-02T21:11:45.078Z,7.03
2022-11-02T21:14:11.385Z,7.08
2022-11-02T21:16:37.694Z,7.17
2022-11-02T21:19:03.953Z,7.22
2022-11-02T21:21:30.281Z,7.26
2022-11-02T21:23:56.625Z,7.26
2022-11-02T21:26:23.149Z,7.19
2022-11-02T21:28:49.636Z,7.21
2022-11-02T21:31:20.661Z,7.23
2022-11-02T21:33:48.783Z,7.17
2022-11-02T21:36:16.282Z,7.15
2022-11-02T21:38:48.416Z,7.11
2022-11-02T21:41:25.655Z,7.14
2022-11-02T21:43:52.277Z,7.09
2022-11-02T21:46:19.309Z,7.05
2022-11-02T21:48:45.657Z,6.95
2022-11-02T21:51:17.449Z,6.96
2022-11-02T21:53:45.541Z,6.91
2022-11-02T21:56:14.605Z,6.89
2022-11-02T21:58:44.827Z,6.88
2022-11-02T22:01:39.071Z,6.93
2022-11-02T22:04:06.986Z,6.93
2022-11-02T22:06:34.294Z,6.96
2022-11-02T22:09:01.553Z,6.98
2022-11-02T22:11:29.025Z,7.01
2022-11-02T22:13:57.853Z,7.02
2022-11-02T22:16:35.299Z,7.04
2022-11-02T22:19:10.570Z,7.06
2022-11-02T22:21:39.493Z,7.04
2022-11-02T22:24:06.904Z,7.08
2022-11-02T22:26:34.635Z,7.10
2022-11-02T22:29:01.049Z,7.08
2022-11-02T22:31:33.124Z,7.11
2022-11-02T22:34:01.118Z,7.07
2022-11-02T22:36:29.520Z,7.15
2022-11-02T22:38:57.454Z,7.06
2022-11-02T22:41:25.107Z,7.03
2022-11-02T22:43:54.230Z,7.08
2022-11-02T22:46:21.845Z,7.05
2022-11-02T22:48:50.836Z,7.04
2022-11-02T22:51:18.935Z,7.03
2022-11-02T22:53:45.262Z,6.99
2022-11-02T22:56:13.574Z,7.00
2022-11-02T22:58:42.278Z,6.98
2022-11-02T23:01:12.010Z,6.93
2022-11-02T23:03:38.481Z,6.94
2022-11-02T23:06:06.627Z,6.87
2022-11-02T23:08:35.292Z,6.84
2022-11-02T23:11:21.266Z,6.72
2022-11-02T23:13:47.552Z,6.73
2022-11-02T23:16:21.045Z,6.68
2022-11-02T23:19:23.515Z,6.63
2022-11-02T23:22:41.703Z,6.54
2022-11-02T23:25:14.050Z,6.64
2022-11-02T23:28:12.229Z,6.58
2022-11-02T23:30:57.371Z,6.61
2022-11-02T23:33:28.703Z,6.64
2022-11-02T23:36:15.298Z,6.61
2022-11-02T23:39:02.420Z,6.59
2022-11-02T23:41:30.572Z,6.53
2022-11-02T23:44:12.533Z,6.42
2022-11-02T23:46:44.339Z,6.37
2022-11-02T23:49:11.620Z,6.33
2022-11-02T23:51:56.831Z,6.21
2022-11-02T23:54:41.652Z,6.13
2022-11-02T23:57:08.000Z,6.03
2022-11-02T23:59:34.353Z,6.04
